Terminal Aerodrome Forecast
Issued by NWS

Home | Current Version | Previous Version | Text Only | Print | Product List | Glossary On
Versions: 1 2 3 4 5 6 7 8 9 10 11 12 13 14 15 16
000
FTUS46 KLOX 161741
TAFPMD
TAF
KPMD 161741Z 1618/1718 VRB05KT P6SM SKC
     FM161900 23010KT P6SM SKC
     FM162100 23012G20KT P6SM SKC
     FM170300 23012KT P6SM SKC
     FM170700 20008KT P6SM SKC
     FM171300 VRB04KT P6SM SKC=

USA.gov is the U.S. government's official web portal to all federal, state and local government web resources and services.